Wetterdaten Neuhaus/Waldnaab

^

Wetter Neuhaus/WN - aktuelle & historische Daten
 
tägl. Zusammenfassung für den 22. Oktober 2019
« minus 1 Tag
plus 1 Tag »
tägl. wöchentl. monatl. jährl.
  Aktuell: Höchstwert: Tiefstwert: Durchschnitt:
Temperatur: 16.4 °C 16.4 °C 6.4 °C 9.4 °C
Taupunkt: 16.1 °C 16.1 °C 6.3 °C 9.2 °C
Luftfeuchte: 98% 99% 98% 99%
Windgeschwindigkeit: 0.0km/h 0.3km/h 0.0km/h 0km/h
Windböe: 0.0km/h 4.0km/h - -
Windruhig - - OSO
Druck: 1024.3 hPa 1024.9 hPa 1022.2 hPa -
Niederschlag: 0.0 mm      
Historical Graphs
 
 














tabellarische Daten für den 22. Oktober 2019
Zeit Temperatur Taupunkt Luftdruck Wind Windgeschwindigkeit Windböe Luftfeuchte Regen (pro h) Solar Bedingungen
00:00 9.8 °C 9.7 °C 1022.6 hPa ruhig     99% 0.0 mm 0.00 W/m2
00:05 9.7 °C 9.6 °C 1022.6 hPa ruhig     99% 0.0 mm 0.00 W/m2
00:10 9.7 °C 9.6 °C 1022.6 hPa ruhig     99% 0.0 mm 0.00 W/m2
00:15 9.6 °C 9.5 °C 1022.9 hPa ruhig     99% 0.0 mm 0.00 W/m2
00:20 9.6 °C 9.5 °C 1022.9 hPa ruhig     99% 0.0 mm 0.00 W/m2
00:25 9.5 °C 9.4 °C 1022.6 hPa ruhig     99% 0.0 mm 0.00 W/m2
00:30 9.4 °C 9.3 °C 1022.2 hPa ruhig     99% 0.0 mm 0.00 W/m2
00:35 9.3 °C 9.2 °C 1022.6 hPa ruhig     99% 0.0 mm 0.00 W/m2
00:40 9.2 °C 9.1 °C 1022.6 hPa ruhig     99% 0.0 mm 0.00 W/m2
00:45 9.2 °C 9.1 °C 1022.9 hPa ruhig     99% 0.0 mm 0.00 W/m2
00:50 9.1 °C 9.0 °C 1022.6 hPa ruhig     99% 0.0 mm 0.00 W/m2
00:55 9.0 °C 8.9 °C 1022.6 hPa ruhig     99% 0.0 mm 0.00 W/m2
01:00 9.0 °C 8.9 °C 1022.6 hPa ruhig     99% 0.0 mm 0.00 W/m2
01:05 9.0 °C 8.9 °C 1022.2 hPa ruhig     99% 0.0 mm 0.00 W/m2
01:10 8.9 °C 8.8 °C 1022.6 hPa ruhig     99% 0.0 mm 0.00 W/m2
01:15 8.9 °C 8.8 °C 1022.6 hPa ruhig     99% 0.0 mm 0.00 W/m2
01:20 8.8 °C 8.7 °C 1022.9 hPa ruhig     99% 0.0 mm 0.00 W/m2
01:25 8.8 °C 8.7 °C 1022.9 hPa ruhig     99% 0.0 mm 0.00 W/m2
01:30 8.8 °C 8.7 °C 1023.2 hPa ruhig     99% 0.0 mm 0.00 W/m2
01:35 8.7 °C 8.6 °C 1023.2 hPa ruhig     99% 0.0 mm 0.00 W/m2
01:40 8.6 °C 8.5 °C 1022.9 hPa ruhig     99% 0.0 mm 0.00 W/m2
01:45 8.7 °C 8.6 °C 1023.2 hPa ruhig     99% 0.0 mm 0.00 W/m2
01:50 8.8 °C 8.7 °C 1022.9 hPa ruhig     99% 0.0 mm 0.00 W/m2
01:55 8.8 °C 8.7 °C 1022.9 hPa ruhig     99% 0.0 mm 0.00 W/m2
02:00 8.8 °C 8.7 °C 1022.9 hPa ruhig     99% 0.0 mm 0.00 W/m2
02:05 8.9 °C 8.8 °C 1023.2 hPa ruhig     99% 0.0 mm 0.00 W/m2
02:10 8.9 °C 8.8 °C 1023.2 hPa ruhig     99% 0.0 mm 0.00 W/m2
02:15 9.0 °C 8.9 °C 1023.2 hPa ruhig     99% 0.0 mm 0.00 W/m2
02:20 9.0 °C 8.9 °C 1022.9 hPa ruhig     99% 0.0 mm 0.00 W/m2
02:25 9.0 °C 8.9 °C 1023.2 hPa ruhig     99% 0.0 mm 0.00 W/m2
02:30 9.0 °C 8.9 °C 1022.9 hPa ruhig     99% 0.0 mm 0.00 W/m2
02:35 8.9 °C 8.8 °C 1023.2 hPa ruhig     99% 0.0 mm 0.00 W/m2
02:40 8.8 °C 8.7 °C 1023.2 hPa ruhig     99% 0.0 mm 0.00 W/m2
02:45 8.8 °C 8.7 °C 1023.2 hPa ruhig     99% 0.0 mm 0.00 W/m2
02:50 8.7 °C 8.6 °C 1022.9 hPa ruhig     99% 0.0 mm 0.00 W/m2
02:55 8.7 °C 8.6 °C 1022.9 hPa ruhig     99% 0.0 mm 0.00 W/m2
03:00 8.5 °C 8.4 °C 1022.9 hPa ruhig     99% 0.0 mm 0.00 W/m2
03:05 8.4 °C 8.3 °C 1022.6 hPa ruhig     99% 0.0 mm 0.00 W/m2
03:10 8.3 °C 8.2 °C 1022.6 hPa ruhig     99% 0.0 mm 0.00 W/m2
03:15 8.3 °C 8.2 °C 1022.6 hPa ruhig     99% 0.0 mm 0.00 W/m2
03:20 8.2 °C 8.1 °C 1022.6 hPa ruhig     99% 0.0 mm 0.00 W/m2
03:25 8.1 °C 8.0 °C 1022.6 hPa ruhig     99% 0.0 mm 0.00 W/m2
03:30 8.1 °C 8.0 °C 1022.9 hPa ruhig     99% 0.0 mm 0.00 W/m2
03:35 8.0 °C 7.9 °C 1022.9 hPa ruhig     99% 0.0 mm 0.00 W/m2
03:40 8.0 °C 7.9 °C 1022.9 hPa ruhig     99% 0.0 mm 0.00 W/m2
03:45 7.9 °C 7.8 °C 1022.6 hPa ruhig     99% 0.0 mm 0.00 W/m2
03:50 7.9 °C 7.8 °C 1022.9 hPa ruhig     99% 0.0 mm 0.00 W/m2
03:55 7.9 °C 7.8 °C 1022.6 hPa ruhig     99% 0.0 mm 0.00 W/m2
04:00 7.9 °C 7.8 °C 1022.9 hPa ruhig     99% 0.0 mm 0.00 W/m2
04:05 7.8 °C 7.7 °C 1022.6 hPa ruhig     99% 0.0 mm 0.00 W/m2
04:10 7.8 °C 7.7 °C 1022.9 hPa ruhig     99% 0.0 mm 0.00 W/m2
04:15 7.8 °C 7.7 °C 1022.6 hPa ruhig     99% 0.0 mm 0.00 W/m2
04:20 7.7 °C 7.6 °C 1022.9 hPa ruhig     99% 0.0 mm 0.00 W/m2
04:25 7.6 °C 7.5 °C 1022.6 hPa ruhig     99% 0.0 mm 0.00 W/m2
04:30 7.5 °C 7.4 °C 1022.6 hPa ruhig     99% 0.0 mm 0.00 W/m2
04:35 7.5 °C 7.4 °C 1022.9 hPa ruhig     99% 0.0 mm 0.00 W/m2
04:40 7.5 °C 7.4 °C 1022.6 hPa ruhig     99% 0.0 mm 0.00 W/m2
04:45 7.6 °C 7.5 °C 1022.6 hPa ruhig     99% 0.0 mm 0.00 W/m2
04:50 7.6 °C 7.5 °C 1022.6 hPa ruhig     99% 0.0 mm 0.00 W/m2
04:55 7.7 °C 7.6 °C 1022.6 hPa ruhig     99% 0.0 mm 0.00 W/m2
05:00 7.8 °C 7.7 °C 1022.6 hPa ruhig     99% 0.0 mm 0.00 W/m2
05:05 7.8 °C 7.7 °C 1022.6 hPa ruhig     99% 0.0 mm 0.00 W/m2
05:10 7.8 °C 7.7 °C 1022.6 hPa ruhig     99% 0.0 mm 0.00 W/m2
05:15 7.8 °C 7.7 °C 1022.6 hPa ruhig     99% 0.0 mm 0.00 W/m2
05:20 7.9 °C 7.8 °C 1022.9 hPa ruhig     99% 0.0 mm 0.00 W/m2
05:25 7.9 °C 7.8 °C 1022.9 hPa ruhig     99% 0.0 mm 0.00 W/m2
05:30 7.9 °C 7.8 °C 1022.9 hPa ruhig     99% 0.0 mm 0.00 W/m2
05:35 8.0 °C 7.9 °C 1023.2 hPa ruhig     99% 0.0 mm 0.00 W/m2
05:40 8.0 °C 7.9 °C 1022.9 hPa ruhig     99% 0.0 mm 0.00 W/m2
05:45 8.0 °C 7.9 °C 1023.2 hPa ruhig     99% 0.0 mm 0.00 W/m2
05:50 7.9 °C 7.8 °C 1023.2 hPa ruhig     99% 0.0 mm 0.00 W/m2
05:55 7.8 °C 7.7 °C 1023.6 hPa ruhig     99% 0.0 mm 0.00 W/m2
06:00 7.8 °C 7.7 °C 1023.6 hPa ruhig     99% 0.0 mm 0.00 W/m2
06:05 7.7 °C 7.6 °C 1023.6 hPa ruhig     99% 0.0 mm 0.00 W/m2
06:10 7.6 °C 7.5 °C 1023.6 hPa ruhig     99% 0.0 mm 0.00 W/m2
06:15 7.5 °C 7.4 °C 1023.2 hPa ruhig     99% 0.0 mm 0.00 W/m2
06:20 7.4 °C 7.3 °C 1023.6 hPa ruhig     99% 0.0 mm 0.00 W/m2
06:25 7.4 °C 7.3 °C 1023.6 hPa ruhig     99% 0.0 mm 0.00 W/m2
06:30 7.4 °C 7.3 °C 1023.6 hPa ruhig     99% 0.0 mm 0.00 W/m2
06:35 7.3 °C 7.2 °C 1023.9 hPa ruhig     99% 0.0 mm 0.00 W/m2
06:40 7.3 °C 7.2 °C 1023.9 hPa ruhig     99% 0.0 mm 0.00 W/m2
06:45 7.3 °C 7.2 °C 1023.9 hPa ruhig     99% 0.0 mm 0.00 W/m2
06:50 7.2 °C 7.1 °C 1023.9 hPa ruhig     99% 0.0 mm 0.00 W/m2
06:55 7.2 °C 7.1 °C 1023.6 hPa ruhig     99% 0.0 mm 0.00 W/m2
07:00 7.1 °C 7.0 °C 1023.9 hPa ruhig     99% 0.0 mm 0.00 W/m2
07:05 7.1 °C 7.0 °C 1024.3 hPa ruhig     99% 0.0 mm 0.00 W/m2
07:10 7.0 °C 6.9 °C 1023.9 hPa ruhig     99% 0.0 mm 0.00 W/m2
07:15 6.9 °C 6.8 °C 1023.9 hPa ruhig     99% 0.0 mm 0.00 W/m2
07:20 6.9 °C 6.8 °C 1023.9 hPa ruhig     99% 0.0 mm 0.00 W/m2
07:25 6.8 °C 6.7 °C 1023.9 hPa ruhig     99% 0.0 mm 0.00 W/m2
07:30 6.7 °C 6.6 °C 1023.6 hPa ruhig     99% 0.0 mm 0.00 W/m2
07:35 6.7 °C 6.6 °C 1023.6 hPa ruhig     99% 0.0 mm 0.00 W/m2
07:40 6.6 °C 6.5 °C 1023.6 hPa ruhig     99% 0.0 mm 0.00 W/m2
07:45 6.6 °C 6.5 °C 1023.9 hPa ruhig     99% 0.0 mm 0.93 W/m2
07:50 6.5 °C 6.4 °C 1023.9 hPa ruhig     99% 0.0 mm 3.06 W/m2
07:55 6.5 °C 6.4 °C 1023.6 hPa ruhig     99% 0.0 mm 4.83 W/m2
08:00 6.5 °C 6.4 °C 1023.2 hPa ruhig     99% 0.0 mm 6.51 W/m2
08:05 6.5 °C 6.4 °C 1023.6 hPa ruhig     99% 0.0 mm 7.79 W/m2
08:10 6.4 °C 6.3 °C 1023.6 hPa ruhig     99% 0.0 mm 10.10 W/m2
08:15 6.4 °C 6.3 °C 1023.2 hPa ruhig     99% 0.0 mm 13.30 W/m2
08:20 6.4 °C 6.3 °C 1023.6 hPa ruhig     99% 0.0 mm 16.17 W/m2
08:25 6.5 °C 6.4 °C 1023.6 hPa ruhig     99% 0.0 mm 18.30 W/m2
08:30 6.5 °C 6.4 °C 1023.6 hPa ruhig     99% 0.0 mm 19.86 W/m2
08:35 6.5 °C 6.4 °C 1023.6 hPa ruhig     99% 0.0 mm 24.91 W/m2
08:40 6.5 °C 6.4 °C 1023.6 hPa ruhig     99% 0.0 mm 31.19 W/m2
08:45 6.6 °C 6.5 °C 1023.9 hPa ruhig     99% 0.0 mm 36.27 W/m2
08:50 6.7 °C 6.6 °C 1023.9 hPa ruhig     99% 0.0 mm 37.69 W/m2
08:55 6.9 °C 6.8 °C 1023.9 hPa ruhig     99% 0.0 mm 36.49 W/m2
09:00 7.2 °C 7.1 °C 1023.9 hPa ruhig     99% 0.0 mm 35.24 W/m2
09:05 7.4 °C 7.3 °C 1023.9 hPa ruhig     99% 0.0 mm 34.75 W/m2
09:10 7.6 °C 7.5 °C 1024.3 hPa ruhig     99% 0.0 mm 35.21 W/m2
09:15 7.8 °C 7.7 °C 1024.3 hPa ruhig     99% 0.0 mm 38.05 W/m2
09:20 8.0 °C 7.9 °C 1023.9 hPa ruhig     99% 0.0 mm 42.24 W/m2
09:25 8.2 °C 8.1 °C 1024.3 hPa ruhig     99% 0.0 mm 44.02 W/m2
09:30 8.2 °C 8.1 °C 1023.9 hPa ruhig     99% 0.0 mm 49.84 W/m2
09:35 8.4 °C 8.3 °C 1023.9 hPa ruhig     99% 0.0 mm 57.19 W/m2
09:40 8.5 °C 8.4 °C 1023.9 hPa ruhig     99% 0.0 mm 63.94 W/m2
09:45 8.7 °C 8.6 °C 1024.3 hPa ruhig     99% 0.0 mm 69.80 W/m2
09:50 8.8 °C 8.7 °C 1024.3 hPa ruhig     99% 0.0 mm 70.65 W/m2
09:55 9.0 °C 8.9 °C 1024.3 hPa ruhig     99% 0.0 mm 72.00 W/m2
10:00 9.2 °C 9.1 °C 1024.3 hPa ruhig     99% 0.0 mm 75.95 W/m2
10:05 9.5 °C 9.4 °C 1024.3 hPa ruhig     99% 0.0 mm 77.69 W/m2
10:10 9.8 °C 9.7 °C 1024.3 hPa ruhig     99% 0.0 mm 81.78 W/m2
10:15 10.1 °C 10.0 °C 1024.6 hPa ruhig     99% 0.0 mm 79.59 W/m2
10:20 10.4 °C 10.3 °C 1024.3 hPa ruhig     99% 0.0 mm 82.22 W/m2
10:25 10.7 °C 10.6 °C 1024.6 hPa ruhig     99% 0.0 mm 83.97 W/m2
10:30 11.0 °C 10.9 °C 1024.3 hPa ruhig     99% 0.0 mm 86.22 W/m2
10:35 11.3 °C 11.2 °C 1024.6 hPa ruhig     99% 0.0 mm 83.68 W/m2
10:40 11.5 °C 11.4 °C 1024.3 hPa ruhig     99% 0.0 mm 76.66 W/m2
10:45 11.8 °C 11.7 °C 1024.3 hPa ruhig     99% 0.0 mm 66.25 W/m2
10:50 12.1 °C 12.0 °C 1024.3 hPa ruhig     99% 0.0 mm 56.20 W/m2
10:55 12.4 °C 12.3 °C 1024.9 hPa ruhig     99% 0.0 mm 50.52 W/m2
11:00 12.6 °C 12.5 °C 1024.6 hPa ruhig     99% 0.0 mm 39.33 W/m2
11:05 12.7 °C 12.6 °C 1024.6 hPa ruhig     99% 0.0 mm 44.44 W/m2
11:10 12.9 °C 12.8 °C 1024.6 hPa ruhig     99% 0.0 mm 50.20 W/m2
11:15 13.0 °C 12.9 °C 1024.6 hPa ruhig     99% 0.0 mm 45.40 W/m2
11:20 13.0 °C 12.9 °C 1024.3 hPa ruhig     99% 0.0 mm 55.63 W/m2
11:25 13.1 °C 13.0 °C 1024.6 hPa ruhig     99% 0.0 mm 53.07 W/m2
11:30 13.2 °C 13.1 °C 1024.6 hPa ruhig     99% 0.0 mm 61.38 W/m2
11:35 13.3 °C 13.2 °C 1024.3 hPa ruhig     99% 0.0 mm 64.05 W/m2
11:40 13.5 °C 13.4 °C 1024.6 hPa ruhig     99% 0.0 mm 64.83 W/m2
11:45 13.7 °C 13.6 °C 1024.6 hPa ruhig     99% 0.0 mm 72.96 W/m2
11:50 13.9 °C 13.8 °C 1024.3 hPa ruhig     99% 0.0 mm 75.77 W/m2
11:55 14.1 °C 14.0 °C 1024.3 hPa ruhig     99% 0.0 mm 84.29 W/m2
12:00 14.4 °C 14.3 °C 1024.6 hPa ruhig     99% 0.0 mm 86.40 W/m2
12:05 14.6 °C 14.5 °C 1024.6 hPa ruhig     99% 0.0 mm 93.06 W/m2
12:10 14.9 °C 14.8 °C 1024.6 hPa ruhig     99% 0.0 mm 96.41 W/m2
12:15 15.1 °C 15.0 °C 1024.3 hPa ruhig     99% 0.0 mm 95.33 W/m2
12:20 15.3 °C 15.2 °C 1024.3 hPa ruhig     99% 0.0 mm 95.04 W/m2
12:25 15.5 °C 15.4 °C 1024.6 hPa ruhig     99% 0.0 mm 92.35 W/m2
12:30 15.7 °C 15.6 °C 1023.9 hPa ruhig     99% 0.0 mm 81.96 W/m2
12:35 15.8 °C 15.5 °C 1024.3 hPa East 0.3 km/h 4.0 km/h 98% 0.0 mm 84.21 W/m2
12:40 15.9 °C 15.6 °C 1024.3 hPa ruhig     98% 0.0 mm 85.52 W/m2
12:45 16.0 °C 15.9 °C 1024.3 hPa ruhig     99% 0.0 mm 88.59 W/m2
12:50 16.1 °C 15.8 °C 1024.3 hPa ruhig     98% 0.0 mm 93.00 W/m2
12:55 16.2 °C 16.1 °C 1024.6 hPa ruhig     99% 0.0 mm 90.63 W/m2
13:00 16.3 °C 16.0 °C 1024.3 hPa ruhig     98% 0.0 mm 98.46 W/m2
13:05 16.3 °C 16.0 °C 1024.3 hPa ruhig     98% 0.0 mm 105.20 W/m2
13:10 16.4 °C 16.1 °C 1024.6 hPa ruhig     98% 0.0 mm 111.86 W/m2
13:15 16.4 °C 16.1 °C 1024.3 hPa ruhig     98% 0.0 mm 117.67 W/m2
Neuhaus/WN - Oberpfalz